Maryneal, Texas
Current Conditions -  °F | °C
As of 11:35 AM on Friday 21 Nov 2014 (Local Time) from KSWW Reporting Station
Scattered Clouds Scattered Clouds  
Wind Chill: 64°   Ceiling: Unl
Heat Index: 64°   Visibility: 10mi
Dew Point: 51°   Wind: 12mph
Humidity: 63%   Direction: 180°S
Pressure: 30.09"   Gusts: NA
Location:  32.24°N, 100.45°W
Report Text: KSWW 211735Z AUTO 18010KT 10SM SCT019 18/11 A3009 RMK AO2 T01770106
Loading
Personal Weather Stations






























Interactive Weather Map New forecast layout! Learn more

10-Day Weather Forecast

Advertisements
Track Severe Weather on mobile